Thealka, Kentucky
Current Conditions -  °F | °C
As of 11:35 PM on Friday 24 Oct 2014 (Local Time) from KSJS Reporting Station
Clear Clear  
Wind Chill: 48°   Ceiling: Unl
Heat Index: 48°   Visibility: 10mi
Dew Point: 43°   Wind: 0mph
Humidity: 82%   Direction: NA
Pressure: 30.08"   Gusts: NA
Location:  37.7517°N, 82.9074°W
Report Text: KSJS 250335Z AUTO 00000KT 10SM CLR 09/06 A3008 RMK AO2 T00890059
Loading
Personal Weather Stations






























Interactive Weather Map
Tropical Storm Tracking
New forecast layout! Learn more

10-Day Weather Forecast

Advertisements
Track Severe Weather on mobile